Time;durP1;ratioP1;P1;durP2;ratioP2;P2;SDS_P1;SDS_P2;PMS_P1;PMS_P2;Temp;Humidity;BMP_temperature;BMP_pressure;BME280_temperature;BME280_humidity;BME280_pressure;Samples;Min_cycle;Max_cycle;Signal;HPM_P1;HPM_P2
2023/03/30 00:02:29;;;;;;;23.48;16.15;;;;;;;;;;5052480;28;20045;-68
2023/03/30 00:05:01;;;;;;;24.77;15.45;;;;;;;;;;5053312;28;20080;-68
2023/03/30 00:07:29;;;;;;;22.15;14.65;;;;;;;;;;5053088;28;20040;-68
2023/03/30 00:09:55;;;;;;;20.80;14.68;;;;;;;;;;5052731;28;20055;-68
2023/03/30 00:12:22;;;;;;;24.13;15.68;;;;;;;;;;5052852;28;20578;-68
2023/03/30 00:14:48;;;;;;;21.63;13.57;;;;;;;;;;5056123;28;20094;-67
2023/03/30 00:17:15;;;;;;;21.60;13.57;;;;;;;;;;5053523;28;20083;-68
2023/03/30 00:19:41;;;;;;;19.70;13.93;;;;;;;;;;5032357;28;20040;-67
2023/03/30 00:22:08;;;;;;;17.45;13.43;;;;;;;;;;5047941;28;20057;-68
2023/03/30 00:24:35;;;;;;;20.90;12.65;;;;;;;;;;5050578;28;20102;-68
2023/03/30 00:27:02;;;;;;;19.27;12.93;;;;;;;;;;5051148;28;20041;-68
2023/03/30 00:29:28;;;;;;;17.48;11.75;;;;;;;;;;5052965;28;20581;-68
2023/03/30 00:31:54;;;;;;;15.57;11.65;;;;;;;;;;5052369;28;20040;-68
2023/03/30 00:34:21;;;;;;;16.83;12.68;;;;;;;;;;5052266;28;20041;-68
2023/03/30 00:36:48;;;;;;;17.00;11.48;;;;;;;;;;5051816;28;20090;-68
2023/03/30 00:39:17;;;;;;;19.58;12.55;;;;;;;;;;5049140;28;20447;-67
2023/03/30 00:41:45;;;;;;;17.20;10.85;;;;;;;;;;5032143;28;20064;-68
2023/03/30 00:44:30;;;;;;;19.08;11.50;;;;;;;;;;5049713;28;20174;-67
2023/03/30 00:46:57;;;;;;;15.65;9.73;;;;;;;;;;5058075;28;20040;-68
2023/03/30 00:49:24;;;;;;;16.00;9.10;;;;;;;;;;5054535;28;20044;-68
2023/03/30 00:51:50;;;;;;;17.38;9.27;;;;;;;;;;5055309;28;20048;-68
2023/03/30 00:54:17;;;;;;;16.73;9.63;;;;;;;;;;5037163;28;20106;-68
2023/03/30 00:56:44;;;;;;;15.15;9.63;;;;;;;;;;5053635;28;20503;-69
2023/03/30 00:59:11;;;;;;;15.05;9.50;;;;;;;;;;5050817;28;20063;-68
2023/03/30 01:01:39;;;;;;;14.30;10.10;;;;;;;;;;5022286;28;20434;-68
2023/03/30 01:04:06;;;;;;;16.52;9.70;;;;;;;;;;5055833;28;20116;-69
2023/03/30 01:06:34;;;;;;;15.25;9.48;;;;;;;;;;5038868;28;20055;-68
2023/03/30 01:09:00;;;;;;;15.88;9.63;;;;;;;;;;5034989;28;20426;-68
2023/03/30 01:11:27;;;;;;;17.23;9.02;;;;;;;;;;5057467;28;20075;-68
2023/03/30 01:13:56;;;;;;;16.90;9.95;;;;;;;;;;5056496;28;20061;-68
2023/03/30 01:16:27;;;;;;;13.73;9.85;;;;;;;;;;5055216;28;20143;-68
2023/03/30 01:19:00;;;;;;;17.17;8.70;;;;;;;;;;5053650;28;20048;-68
2023/03/30 01:21:41;;;;;;;16.27;9.32;;;;;;;;;;5056205;28;20055;-68
2023/03/30 01:24:19;;;;;;;17.52;9.75;;;;;;;;;;5053803;28;20539;-68
2023/03/30 01:26:49;;;;;;;16.02;8.43;;;;;;;;;;5057770;28;20052;-68
2023/03/30 01:29:24;;;;;;;16.08;8.85;;;;;;;;;;5039522;28;20037;-68
2023/03/30 01:32:00;;;;;;;25.42;11.30;;;;;;;;;;5039653;28;20041;-68
2023/03/30 01:34:33;;;;;;;20.10;10.95;;;;;;;;;;5039392;28;21575;-68
2023/03/30 01:37:00;;;;;;;19.42;9.70;;;;;;;;;;5040177;28;20101;-69
2023/03/30 01:39:27;;;;;;;16.27;9.27;;;;;;;;;;5056674;28;20048;-68
2023/03/30 01:41:57;;;;;;;16.05;9.90;;;;;;;;;;5059587;28;20051;-68
2023/03/30 01:44:24;;;;;;;18.02;9.02;;;;;;;;;;5059592;28;20426;-71
2023/03/30 01:46:55;;;;;;;14.00;8.38;;;;;;;;;;5058226;28;20056;-69
2023/03/30 01:49:26;;;;;;;14.45;7.82;;;;;;;;;;5056224;28;20451;-68
2023/03/30 01:52:00;;;;;;;12.98;7.25;;;;;;;;;;5058961;28;20052;-68
2023/03/30 01:54:31;;;;;;;16.10;7.63;;;;;;;;;;5060184;28;20048;-69
2023/03/30 01:56:57;;;;;;;14.10;7.13;;;;;;;;;;5043442;28;20573;-68
2023/03/30 01:59:29;;;;;;;15.07;7.03;;;;;;;;;;5059968;28;20120;-68
2023/03/30 02:01:59;;;;;;;16.45;7.25;;;;;;;;;;5057518;28;20040;-68
2023/03/30 02:04:26;;;;;;;11.65;7.55;;;;;;;;;;5060305;28;20041;-68
2023/03/30 02:07:01;;;;;;;12.35;6.80;;;;;;;;;;5058248;28;20044;-68
2023/03/30 02:09:29;;;;;;;13.65;7.05;;;;;;;;;;5053094;28;20425;-68
2023/03/30 02:11:56;;;;;;;14.95;6.50;;;;;;;;;;5058162;28;20040;-68
2023/03/30 02:14:26;;;;;;;12.00;6.32;;;;;;;;;;5055631;28;20041;-69
2023/03/30 02:16:56;;;;;;;16.83;6.55;;;;;;;;;;5055269;28;20041;-67
2023/03/30 02:19:22;;;;;;;10.13;6.78;;;;;;;;;;5038630;28;20124;-68
2023/03/30 02:21:49;;;;;;;17.88;7.05;;;;;;;;;;5040066;28;20048;-68
2023/03/30 02:24:18;;;;;;;13.93;5.93;;;;;;;;;;5036946;28;20043;-67
2023/03/30 02:26:47;;;;;;;14.13;6.85;;;;;;;;;;5058729;28;20150;-67
2023/03/30 02:29:14;;;;;;;18.42;6.70;;;;;;;;;;5034670;28;20044;-67
2023/03/30 02:31:41;;;;;;;19.67;6.43;;;;;;;;;;5057793;28;20060;-67
2023/03/30 02:34:12;;;;;;;16.52;6.05;;;;;;;;;;5060879;28;20044;-67
2023/03/30 02:37:08;;;;;;;14.13;5.78;;;;;;;;;;5057069;28;20736;-68
2023/03/30 02:39:57;;;;;;;16.10;5.35;;;;;;;;;;5040670;28;20113;-67
2023/03/30 02:42:34;;;;;;;12.18;5.18;;;;;;;;;;5039805;28;20048;-67
2023/03/30 02:45:07;;;;;;;13.93;5.47;;;;;;;;;;5055851;28;20055;-67
2023/03/30 02:47:47;;;;;;;14.00;6.00;;;;;;;;;;5060947;28;20041;-68
2023/03/30 02:50:21;;;;;;;16.30;5.78;;;;;;;;;;5040611;28;20060;-68
2023/03/30 02:52:54;;;;;;;15.52;5.15;;;;;;;;;;5057107;28;20061;-68
2023/03/30 02:55:25;;;;;;;16.60;5.63;;;;;;;;;;5040004;28;20124;-68
2023/03/30 02:58:11;;;;;;;16.05;5.00;;;;;;;;;;5042710;28;20459;-68
2023/03/30 03:00:42;;;;;;;14.43;5.07;;;;;;;;;;5057382;28;20408;-68
2023/03/30 03:03:13;;;;;;;15.68;5.47;;;;;;;;;;5059082;28;20040;-68
2023/03/30 03:05:41;;;;;;;14.75;5.68;;;;;;;;;;5055257;28;20138;-68
2023/03/30 03:08:08;;;;;;;14.00;5.43;;;;;;;;;;5057877;28;20076;-67
2023/03/30 03:10:35;;;;;;;15.80;5.45;;;;;;;;;;5058964;28;20126;-67
2023/03/30 03:13:02;;;;;;;14.02;5.28;;;;;;;;;;5060236;28;20087;-68
2023/03/30 03:15:29;;;;;;;14.18;6.57;;;;;;;;;;5059679;28;20036;-67
2023/03/30 03:17:55;;;;;;;13.82;5.82;;;;;;;;;;5043358;28;20057;-67
2023/03/30 03:20:21;;;;;;;12.13;5.53;;;;;;;;;;5054858;28;21750;-67
2023/03/30 03:22:47;;;;;;;15.35;6.28;;;;;;;;;;5060505;28;20495;-67
2023/03/30 03:25:14;;;;;;;17.15;7.30;;;;;;;;;;5042144;28;20045;-67
2023/03/30 03:27:40;;;;;;;17.27;6.35;;;;;;;;;;5058836;28;20571;-67
2023/03/30 03:30:07;;;;;;;19.00;6.18;;;;;;;;;;5039042;28;20175;-67
2023/03/30 03:32:33;;;;;;;15.32;6.22;;;;;;;;;;5058095;28;20046;-66
2023/03/30 03:34:59;;;;;;;20.75;5.97;;;;;;;;;;5057712;28;20047;-67
2023/03/30 03:37:25;;;;;;;20.33;6.60;;;;;;;;;;5041864;28;20032;-67
2023/03/30 03:39:51;;;;;;;16.98;6.30;;;;;;;;;;5060224;28;20033;-67
2023/03/30 03:42:17;;;;;;;18.90;6.97;;;;;;;;;;5060178;28;20041;-67
2023/03/30 03:44:44;;;;;;;22.27;6.30;;;;;;;;;;5057966;28;20033;-67
2023/03/30 03:47:12;;;;;;;23.10;7.85;;;;;;;;;;5039390;28;20245;-67
2023/03/30 03:49:38;;;;;;;19.10;7.07;;;;;;;;;;5057743;28;20124;-67
2023/03/30 03:52:05;;;;;;;16.50;7.07;;;;;;;;;;5055004;28;20040;-67
2023/03/30 03:54:31;;;;;;;15.80;5.82;;;;;;;;;;5058361;28;20048;-68
2023/03/30 03:56:57;;;;;;;17.75;7.20;;;;;;;;;;5041804;28;20049;-68
2023/03/30 03:59:24;;;;;;;18.52;6.35;;;;;;;;;;5058408;28;20322;-68
2023/03/30 04:01:50;;;;;;;18.33;6.32;;;;;;;;;;5038102;28;20472;-68
2023/03/30 04:04:16;;;;;;;16.00;6.45;;;;;;;;;;5056205;28;20044;-68
2023/03/30 04:06:42;;;;;;;24.65;7.88;;;;;;;;;;5056903;28;20145;-68
2023/03/30 04:09:08;;;;;;;20.92;6.78;;;;;;;;;;5058179;28;20052;-68
2023/03/30 04:11:35;;;;;;;19.92;6.68;;;;;;;;;;5056772;28;20186;-68
2023/03/30 04:14:01;;;;;;;19.60;6.45;;;;;;;;;;5057477;28;20400;-68
2023/03/30 04:16:28;;;;;;;21.35;6.53;;;;;;;;;;5036252;28;20072;-68
2023/03/30 04:18:54;;;;;;;21.58;6.05;;;;;;;;;;5056705;28;20048;-68
2023/03/30 04:21:21;;;;;;;18.30;6.72;;;;;;;;;;5057850;28;20048;-67
2023/03/30 04:23:47;;;;;;;21.67;5.75;;;;;;;;;;5058991;28;20407;-67
2023/03/30 04:26:14;;;;;;;19.75;6.00;;;;;;;;;;5038990;28;20141;-67
2023/03/30 04:28:41;;;;;;;20.45;5.78;;;;;;;;;;5057507;28;20120;-67
2023/03/30 04:31:09;;;;;;;17.27;5.15;;;;;;;;;;5055271;28;20460;-67
2023/03/30 04:33:43;;;;;;;17.23;5.55;;;;;;;;;;5056280;28;20040;-68
2023/03/30 04:36:10;;;;;;;18.02;4.85;;;;;;;;;;5055278;28;20048;-67
2023/03/30 04:38:36;;;;;;;17.48;4.90;;;;;;;;;;5057597;28;20041;-67
2023/03/30 04:41:02;;;;;;;23.85;6.75;;;;;;;;;;5057369;28;20172;-67
2023/03/30 04:43:30;;;;;;;19.63;5.18;;;;;;;;;;5060117;28;20795;-67
2023/03/30 04:45:57;;;;;;;13.90;4.07;;;;;;;;;;5055482;28;20385;-67
2023/03/30 04:48:23;;;;;;;16.90;4.95;;;;;;;;;;5034321;28;20503;-67
2023/03/30 04:50:50;;;;;;;19.85;5.13;;;;;;;;;;5053220;28;20053;-67
2023/03/30 04:53:17;;;;;;;17.23;4.80;;;;;;;;;;5037432;28;20683;-66
2023/03/30 04:55:47;;;;;;;18.98;4.38;;;;;;;;;;5057145;28;20083;-66
2023/03/30 04:58:13;;;;;;;15.63;4.55;;;;;;;;;;5050735;28;20066;-67
2023/03/30 05:00:40;;;;;;;15.05;4.05;;;;;;;;;;5058018;28;20040;-67
2023/03/30 05:03:07;;;;;;;19.92;4.78;;;;;;;;;;5058725;28;20207;-68
2023/03/30 05:05:33;;;;;;;16.80;3.38;;;;;;;;;;5062393;28;20071;-67
2023/03/30 05:07:59;;;;;;;17.42;3.92;;;;;;;;;;5044513;28;20488;-68
2023/03/30 05:10:26;;;;;;;14.50;3.85;;;;;;;;;;5062660;28;20045;-68
2023/03/30 05:12:54;;;;;;;17.13;4.40;;;;;;;;;;5060035;28;20045;-68
2023/03/30 05:15:20;;;;;;;14.07;4.25;;;;;;;;;;5063508;28;20503;-68
2023/03/30 05:17:47;;;;;;;19.05;4.55;;;;;;;;;;5060619;28;20060;-66
2023/03/30 05:20:13;;;;;;;18.77;4.30;;;;;;;;;;5058025;28;20090;-68
2023/03/30 05:22:40;;;;;;;21.77;5.13;;;;;;;;;;5061681;28;20135;-69
2023/03/30 05:25:06;;;;;;;21.92;4.53;;;;;;;;;;5062666;28;20663;-68
2023/03/30 05:27:33;;;;;;;17.73;4.68;;;;;;;;;;5055744;28;20047;-69
2023/03/30 05:29:59;;;;;;;25.38;5.03;;;;;;;;;;5059575;28;20040;-70
2023/03/30 05:32:25;;;;;;;18.65;4.80;;;;;;;;;;5053839;28;20045;-69
2023/03/30 05:34:52;;;;;;;21.40;4.75;;;;;;;;;;5064457;28;20048;-69
2023/03/30 05:37:18;;;;;;;15.75;4.07;;;;;;;;;;5063913;28;20036;-68
2023/03/30 05:39:44;;;;;;;22.55;4.68;;;;;;;;;;5066375;28;20036;-69
2023/03/30 05:42:11;;;;;;;17.02;3.35;;;;;;;;;;5061520;28;20044;-69
2023/03/30 05:44:37;;;;;;;20.15;5.43;;;;;;;;;;5059219;28;20061;-69
2023/03/30 05:47:03;;;;;;;15.45;3.92;;;;;;;;;;5059672;28;20049;-69
2023/03/30 05:49:30;;;;;;;20.52;4.03;;;;;;;;;;5039750;28;20053;-69
2023/03/30 05:51:56;;;;;;;14.80;3.75;;;;;;;;;;5044547;28;20496;-69
2023/03/30 05:54:22;;;;;;;16.23;4.00;;;;;;;;;;5056127;28;20078;-69
2023/03/30 05:56:48;;;;;;;13.13;3.28;;;;;;;;;;5056457;28;20045;-69
2023/03/30 05:59:15;;;;;;;16.77;4.80;;;;;;;;;;5059868;28;20041;-69
2023/03/30 06:01:41;;;;;;;14.68;3.92;;;;;;;;;;5063210;28;20054;-69
2023/03/30 06:04:07;;;;;;;18.10;4.03;;;;;;;;;;5063997;28;20048;-67
2023/03/30 06:06:33;;;;;;;14.60;4.30;;;;;;;;;;5068962;28;20053;-69
2023/03/30 06:09:01;;;;;;;15.98;4.10;;;;;;;;;;5045000;28;20051;-69
2023/03/30 06:11:27;;;;;;;16.10;3.75;;;;;;;;;;5044822;28;20451;-69
2023/03/30 06:13:53;;;;;;;16.55;4.97;;;;;;;;;;5069556;28;20036;-69
2023/03/30 06:16:20;;;;;;;14.02;3.55;;;;;;;;;;5065227;28;20119;-69
2023/03/30 06:18:47;;;;;;;14.02;3.70;;;;;;;;;;5067254;28;20059;-68
2023/03/30 06:21:13;;;;;;;16.25;4.65;;;;;;;;;;5059345;28;20065;-68
2023/03/30 06:23:40;;;;;;;20.55;4.00;;;;;;;;;;5039838;28;20047;-68
2023/03/30 06:26:06;;;;;;;25.45;4.85;;;;;;;;;;5066560;28;20049;-68
2023/03/30 06:28:33;;;;;;;20.35;4.75;;;;;;;;;;5060874;28;21697;-68
2023/03/30 06:31:01;;;;;;;17.42;4.90;;;;;;;;;;5040801;28;20047;-68
2023/03/30 06:33:27;;;;;;;17.75;3.90;;;;;;;;;;5061545;28;20392;-68
2023/03/30 06:35:54;;;;;;;18.13;3.92;;;;;;;;;;5063257;28;20040;-68
2023/03/30 06:38:21;;;;;;;21.30;4.60;;;;;;;;;;5062689;28;20089;-68
2023/03/30 06:40:47;;;;;;;22.25;4.45;;;;;;;;;;5062043;28;20150;-68
2023/03/30 06:43:16;;;;;;;20.27;4.85;;;;;;;;;;5063125;28;20083;-68
2023/03/30 06:45:43;;;;;;;24.23;6.00;;;;;;;;;;5064572;28;20531;-68
2023/03/30 06:48:09;;;;;;;20.25;4.20;;;;;;;;;;5044202;28;20082;-67
2023/03/30 06:50:35;;;;;;;23.70;5.38;;;;;;;;;;5058634;28;20048;-67
2023/03/30 06:53:03;;;;;;;27.20;5.22;;;;;;;;;;5062848;28;20032;-67
2023/03/30 06:55:29;;;;;;;26.67;5.38;;;;;;;;;;5069742;28;20033;-67
2023/03/30 06:57:55;;;;;;;28.92;5.40;;;;;;;;;;5066406;28;20063;-67
2023/03/30 07:00:22;;;;;;;24.58;5.47;;;;;;;;;;5049983;28;20045;-67
2023/03/30 07:02:48;;;;;;;26.23;5.10;;;;;;;;;;5065498;28;20037;-67
2023/03/30 07:05:14;;;;;;;17.98;5.88;;;;;;;;;;5066416;28;20037;-67
2023/03/30 07:07:41;;;;;;;21.77;4.43;;;;;;;;;;5050119;28;20044;-67
2023/03/30 07:10:10;;;;;;;21.90;4.88;;;;;;;;;;5066893;28;20046;-67
2023/03/30 07:12:37;;;;;;;32.08;5.82;;;;;;;;;;5065011;28;20060;-67
2023/03/30 07:15:05;;;;;;;29.48;7.00;;;;;;;;;;5066771;28;20036;-67
2023/03/30 07:17:33;;;;;;;29.48;5.65;;;;;;;;;;5062843;28;20049;-67
2023/03/30 07:20:00;;;;;;;35.75;7.80;;;;;;;;;;5063069;28;20077;-67
2023/03/30 07:22:26;;;;;;;27.92;4.93;;;;;;;;;;5061270;28;20054;-67
2023/03/30 07:24:52;;;;;;;31.90;5.38;;;;;;;;;;5065057;28;20045;-67
2023/03/30 07:27:18;;;;;;;29.63;5.15;;;;;;;;;;5042956;28;20068;-67
2023/03/30 07:29:44;;;;;;;28.15;5.75;;;;;;;;;;5055918;28;20392;-67
2023/03/30 07:32:11;;;;;;;31.70;5.43;;;;;;;;;;5058908;28;20055;-67
2023/03/30 07:34:37;;;;;;;30.88;6.38;;;;;;;;;;5062530;28;20036;-67
2023/03/30 07:37:05;;;;;;;33.42;6.20;;;;;;;;;;5063271;28;20483;-67
2023/03/30 07:39:31;;;;;;;26.65;5.40;;;;;;;;;;5055652;28;20489;-68
2023/03/30 07:41:57;;;;;;;26.48;5.13;;;;;;;;;;5041376;28;20099;-67
2023/03/30 07:44:27;;;;;;;33.42;5.53;;;;;;;;;;5062767;28;20041;-66
2023/03/30 07:46:54;;;;;;;33.42;6.15;;;;;;;;;;5060654;28;20119;-67
2023/03/30 07:49:20;;;;;;;28.45;5.28;;;;;;;;;;5061937;28;20127;-67
2023/03/30 07:51:46;;;;;;;33.00;5.63;;;;;;;;;;5060795;28;20496;-67
2023/03/30 07:54:13;;;;;;;29.80;6.03;;;;;;;;;;5062660;28;20382;-66
2023/03/30 07:56:41;;;;;;;36.92;7.50;;;;;;;;;;5060252;28;20086;-66
2023/03/30 07:59:08;;;;;;;30.80;6.93;;;;;;;;;;5056479;28;20143;-67
2023/03/30 08:01:34;;;;;;;29.52;6.47;;;;;;;;;;5057589;28;20044;-67
2023/03/30 08:04:01;;;;;;;33.83;6.10;;;;;;;;;;5057350;28;20036;-66
2023/03/30 08:06:28;;;;;;;35.65;5.72;;;;;;;;;;5059706;28;20072;-67
2023/03/30 08:08:54;;;;;;;28.70;5.55;;;;;;;;;;5043602;28;20040;-67
2023/03/30 08:11:21;;;;;;;42.22;7.45;;;;;;;;;;5060089;28;20189;-67
2023/03/30 08:13:47;;;;;;;29.63;5.30;;;;;;;;;;5041788;28;20041;-66
2023/03/30 08:16:13;;;;;;;36.60;7.47;;;;;;;;;;5060635;28;20480;-66
2023/03/30 08:18:41;;;;;;;30.83;6.18;;;;;;;;;;5059962;28;20554;-67
2023/03/30 08:21:07;;;;;;;38.25;8.10;;;;;;;;;;5059167;28;20088;-67
2023/03/30 08:23:33;;;;;;;40.17;7.57;;;;;;;;;;5055710;28;20041;-67
2023/03/30 08:26:00;;;;;;;34.85;6.57;;;;;;;;;;5046614;28;20058;-67
2023/03/30 08:28:26;;;;;;;41.78;6.55;;;;;;;;;;5058036;28;20047;-68
2023/03/30 08:30:53;;;;;;;31.58;7.20;;;;;;;;;;5056951;28;20368;-67
2023/03/30 08:33:19;;;;;;;34.15;7.22;;;;;;;;;;5056913;28;20041;-67
2023/03/30 08:35:47;;;;;;;36.83;7.95;;;;;;;;;;5060126;28;20070;-67
2023/03/30 08:38:16;;;;;;;36.40;7.47;;;;;;;;;;5057491;28;20098;-68
2023/03/30 08:40:43;;;;;;;28.88;6.38;;;;;;;;;;5055900;28;20106;-67
2023/03/30 08:43:19;;;;;;;29.90;5.72;;;;;;;;;;5058434;28;20056;-74
2023/03/30 08:45:46;;;;;;;30.90;6.10;;;;;;;;;;5044534;28;20301;-76
2023/03/30 08:48:20;;;;;;;33.42;5.90;;;;;;;;;;5058164;28;20044;-68
2023/03/30 08:50:52;;;;;;;32.13;6.45;;;;;;;;;;5059268;28;20044;-67
2023/03/30 08:53:18;;;;;;;34.72;6.88;;;;;;;;;;5059692;28;20123;-68
2023/03/30 08:55:48;;;;;;;31.15;5.88;;;;;;;;;;5061266;28;20431;-68
2023/03/30 08:58:20;;;;;;;31.27;6.70;;;;;;;;;;5063014;28;20040;-68
2023/03/30 09:00:57;;;;;;;28.42;5.47;;;;;;;;;;5060781;28;20522;-68
2023/03/30 09:03:29;;;;;;;27.50;5.15;;;;;;;;;;5064872;28;20122;-68
2023/03/30 09:05:58;;;;;;;27.70;5.22;;;;;;;;;;5047856;28;20169;-68
2023/03/30 09:08:28;;;;;;;18.90;4.03;;;;;;;;;;5066106;28;20097;-68
2023/03/30 09:11:00;;;;;;;26.38;5.05;;;;;;;;;;5065696;28;20455;-68
2023/03/30 09:13:31;;;;;;;24.17;4.38;;;;;;;;;;5066173;28;20048;-68
2023/03/30 09:16:02;;;;;;;26.73;4.80;;;;;;;;;;5048305;28;20045;-68
2023/03/30 09:18:30;;;;;;;20.83;4.68;;;;;;;;;;5064881;28;20135;-68
2023/03/30 09:20:58;;;;;;;23.90;4.72;;;;;;;;;;5047972;28;20055;-68
2023/03/30 09:23:25;;;;;;;27.17;4.60;;;;;;;;;;5048499;28;20135;-68
2023/03/30 09:25:52;;;;;;;22.45;5.40;;;;;;;;;;5042434;28;20476;-66
2023/03/30 09:28:20;;;;;;;20.58;4.47;;;;;;;;;;5056758;28;20508;-68
2023/03/30 09:30:50;;;;;;;26.75;4.97;;;;;;;;;;5063493;28;20052;-68
2023/03/30 09:33:16;;;;;;;28.10;5.40;;;;;;;;;;5042720;28;20472;-68
2023/03/30 09:35:47;;;;;;;22.50;5.22;;;;;;;;;;5047153;28;20126;-68
2023/03/30 09:38:14;;;;;;;26.45;5.32;;;;;;;;;;5047893;28;20403;-68
2023/03/30 09:40:45;;;;;;;31.48;5.75;;;;;;;;;;5044721;28;20059;-68
2023/03/30 09:43:33;;;;;;;23.00;5.28;;;;;;;;;;5063332;28;20070;-68
2023/03/30 09:46:01;;;;;;;20.73;3.85;;;;;;;;;;5049043;28;20510;-68
2023/03/30 09:48:27;;;;;;;22.98;4.43;;;;;;;;;;5069637;28;20066;-68
2023/03/30 09:50:53;;;;;;;26.05;3.80;;;;;;;;;;5060558;28;20059;-68
2023/03/30 09:53:24;;;;;;;22.40;4.57;;;;;;;;;;5031942;28;20071;-68
2023/03/30 09:55:54;;;;;;;24.42;4.63;;;;;;;;;;5064736;28;20108;-68
2023/03/30 09:58:26;;;;;;;22.90;5.07;;;;;;;;;;5049762;28;20056;-68
2023/03/30 10:01:02;;;;;;;24.13;3.50;;;;;;;;;;5062728;28;20098;-67
2023/03/30 10:03:28;;;;;;;26.38;4.72;;;;;;;;;;5063382;28;20036;-68
2023/03/30 10:06:01;;;;;;;22.88;5.07;;;;;;;;;;5066034;28;20373;-75
2023/03/30 10:08:28;;;;;;;23.15;5.47;;;;;;;;;;5065548;28;20060;-67
2023/03/30 10:10:55;;;;;;;18.30;4.25;;;;;;;;;;5067414;28;20112;-68
2023/03/30 10:13:26;;;;;;;33.72;5.50;;;;;;;;;;5072577;28;20058;-68
2023/03/30 10:15:53;;;;;;;21.02;4.70;;;;;;;;;;5064905;28;20166;-68
2023/03/30 10:18:27;;;;;;;22.73;6.05;;;;;;;;;;5070662;28;20041;-67
2023/03/30 10:20:53;;;;;;;;;;;;;;;;;;5063258;28;20127;-68
2023/03/30 10:23:21;;;;;;;25.60;4.78;;;;;;;;;;5057399;28;20322;-68
2023/03/30 10:25:49;;;;;;;26.08;4.95;;;;;;;;;;5058150;28;20110;-69
2023/03/30 10:28:20;;;;;;;31.35;5.57;;;;;;;;;;5055266;28;20453;-69
2023/03/30 10:30:51;;;;;;;28.35;4.93;;;;;;;;;;5056721;28;20041;-69
2023/03/30 10:33:18;;;;;;;31.35;5.55;;;;;;;;;;5031183;28;20270;-69
2023/03/30 10:35:46;;;;;;;28.02;5.80;;;;;;;;;;5035837;28;20047;-69
2023/03/30 10:38:13;;;;;;;29.67;6.40;;;;;;;;;;5052987;28;20040;-68
2023/03/30 10:40:41;;;;;;;27.77;5.97;;;;;;;;;;5057129;28;20052;-68
2023/03/30 10:43:12;;;;;;;29.75;5.18;;;;;;;;;;5057623;28;20503;-68
2023/03/30 10:45:41;;;;;;;27.63;5.75;;;;;;;;;;5059548;28;20049;-68
2023/03/30 10:48:08;;;;;;;29.73;6.32;;;;;;;;;;5062521;28;20044;-68
2023/03/30 10:50:41;;;;;;;27.05;4.85;;;;;;;;;;5057047;28;20106;-68
2023/03/30 10:53:17;;;;;;;29.65;5.95;;;;;;;;;;5056734;28;20044;-68
2023/03/30 10:56:01;;;;;;;27.00;5.45;;;;;;;;;;5053206;28;20049;-69
2023/03/30 10:58:27;;;;;;;;;;;;;;;;;;5037388;28;20049;-68
2023/03/30 11:01:08;;;;;;;33.15;7.22;;;;;;;;;;5038660;28;19921;-67
2023/03/30 11:03:38;;;;;;;32.33;6.38;;;;;;;;;;5042322;28;20044;-64
2023/03/30 11:06:10;;;;;;;34.50;6.50;;;;;;;;;;5057276;28;20040;-67
2023/03/30 11:08:39;;;;;;;25.70;4.47;;;;;;;;;;5063458;28;20500;-66
2023/03/30 11:11:05;;;;;;;25.55;6.25;;;;;;;;;;5061115;28;20553;-68
2023/03/30 11:13:34;;;;;;;31.38;6.25;;;;;;;;;;5064022;28;20092;-68
2023/03/30 11:16:11;;;;;;;33.67;6.93;;;;;;;;;;5058652;28;20080;-68
2023/03/30 11:18:55;;;;;;;31.27;5.78;;;;;;;;;;5059713;28;20047;-68
2023/03/30 11:21:25;;;;;;;25.88;5.25;;;;;;;;;;5043919;28;20057;-68
2023/03/30 11:24:03;;;;;;;32.90;5.55;;;;;;;;;;5059944;28;20075;-68
2023/03/30 11:26:37;;;;;;;36.67;7.18;;;;;;;;;;5060579;28;20032;-68
2023/03/30 11:29:18;;;;;;;28.60;6.18;;;;;;;;;;5056005;28;20048;-68
2023/03/30 11:31:57;;;;;;;26.42;6.00;;;;;;;;;;5053785;28;20044;-67
2023/03/30 11:34:35;;;;;;;36.92;7.15;;;;;;;;;;5054118;28;20060;-68
2023/03/30 11:37:05;;;;;;;30.20;5.90;;;;;;;;;;5056361;28;20067;-68
2023/03/30 11:39:33;;;;;;;33.13;6.15;;;;;;;;;;5045314;28;20043;-68
2023/03/30 11:42:05;;;;;;;31.60;5.82;;;;;;;;;;5060962;28;20211;-68
2023/03/30 11:44:31;;;;;;;32.75;6.68;;;;;;;;;;5039058;28;20119;-68
2023/03/30 11:47:04;;;;;;;32.65;6.82;;;;;;;;;;5057273;28;20391;-68
2023/03/30 11:49:31;;;;;;;34.22;7.43;;;;;;;;;;5038473;28;20052;-68
2023/03/30 11:52:06;;;;;;;27.70;6.00;;;;;;;;;;5037432;28;20053;-68
2023/03/30 11:54:45;;;;;;;29.70;5.82;;;;;;;;;;5040830;28;20040;-68
2023/03/30 11:57:20;;;;;;;27.80;6.05;;;;;;;;;;5060488;28;20523;-68
2023/03/30 12:00:00;;;;;;;28.48;5.85;;;;;;;;;;5060399;28;20032;-68
2023/03/30 12:02:34;;;;;;;24.92;6.30;;;;;;;;;;5054601;28;20045;-68
2023/03/30 12:05:06;;;;;;;35.78;6.55;;;;;;;;;;5057451;28;20040;-68
2023/03/30 12:07:46;;;;;;;29.42;6.53;;;;;;;;;;5059051;28;20121;-68
2023/03/30 12:10:23;;;;;;;25.92;5.72;;;;;;;;;;5062609;28;21209;-68
2023/03/30 12:12:52;;;;;;;37.22;7.65;;;;;;;;;;5058220;28;20044;-68
2023/03/30 12:15:27;;;;;;;26.45;5.55;;;;;;;;;;5041612;28;20047;-68
2023/03/30 12:18:08;;;;;;;29.63;6.40;;;;;;;;;;5061263;28;20049;-68
2023/03/30 12:20:43;;;;;;;37.17;7.72;;;;;;;;;;5060276;28;20881;-69
2023/03/30 12:23:15;;;;;;;39.50;6.82;;;;;;;;;;5059914;28;20125;-68
2023/03/30 12:25:49;;;;;;;27.92;6.38;;;;;;;;;;5062741;28;20036;-69
2023/03/30 12:28:16;;;;;;;32.17;6.45;;;;;;;;;;5061514;28;20483;-69
2023/03/30 12:30:43;;;;;;;29.05;6.30;;;;;;;;;;5059375;28;20480;-69
2023/03/30 12:33:12;;;;;;;28.63;6.78;;;;;;;;;;5060737;28;20048;-69
2023/03/30 12:35:51;;;;;;;29.70;6.85;;;;;;;;;;5062263;28;20427;-69
2023/03/30 12:38:20;;;;;;;35.97;6.97;;;;;;;;;;5058532;28;20117;-69
2023/03/30 12:40:52;;;;;;;28.60;6.40;;;;;;;;;;5059437;28;20045;-69
2023/03/30 12:43:22;;;;;;;29.00;6.15;;;;;;;;;;5053715;28;20476;-68
2023/03/30 12:46:00;;;;;;;32.10;7.40;;;;;;;;;;5057170;28;20037;-68
2023/03/30 12:48:35;;;;;;;27.90;6.25;;;;;;;;;;5059219;28;20045;-69
2023/03/30 12:51:15;;;;;;;31.20;6.65;;;;;;;;;;5055402;28;20514;-69
2023/03/30 12:54:02;;;;;;;28.75;6.25;;;;;;;;;;5053382;28;20049;-69
2023/03/30 12:56:30;;;;;;;27.35;6.10;;;;;;;;;;5033172;28;20426;-69
2023/03/30 12:59:04;;;;;;;26.15;5.85;;;;;;;;;;5060510;28;20048;-69
2023/03/30 13:01:49;;;;;;;30.88;6.90;;;;;;;;;;5039953;28;20044;-69
2023/03/30 13:04:17;;;;;;;29.73;6.90;;;;;;;;;;5033081;28;20502;-69
2023/03/30 13:06:59;;;;;;;29.25;6.97;;;;;;;;;;5037459;28;20201;-69
2023/03/30 13:09:26;;;;;;;31.95;6.47;;;;;;;;;;5055299;28;20048;-69
2023/03/30 13:11:52;;;;;;;25.38;7.00;;;;;;;;;;5038150;28;20124;-69
2023/03/30 13:14:33;;;;;;;34.35;7.70;;;;;;;;;;5056805;28;20064;-69
2023/03/30 13:17:00;;;;;;;43.53;7.53;;;;;;;;;;5056763;28;20051;-69
2023/03/30 13:19:27;;;;;;;32.15;6.78;;;;;;;;;;5056199;28;20074;-68
2023/03/30 13:21:56;;;;;;;22.30;6.13;;;;;;;;;;5045387;28;20052;-69
2023/03/30 13:24:29;;;;;;;35.13;8.02;;;;;;;;;;5059901;28;20064;-68
2023/03/30 13:27:10;;;;;;;32.55;6.88;;;;;;;;;;5041508;28;20049;-69
2023/03/30 13:29:36;;;;;;;35.08;8.70;;;;;;;;;;5059105;28;20472;-69
2023/03/30 13:32:09;;;;;;;31.08;6.82;;;;;;;;;;5061305;28;20045;-69
2023/03/30 13:34:46;;;;;;;28.23;7.63;;;;;;;;;;5035541;28;20048;-69
2023/03/30 13:37:18;;;;;;;36.08;7.75;;;;;;;;;;5059951;28;20055;-69
2023/03/30 13:39:51;;;;;;;35.05;7.40;;;;;;;;;;5057283;28;20159;-69
2023/03/30 13:42:24;;;;;;;30.30;5.95;;;;;;;;;;5061128;28;20057;-68
2023/03/30 13:44:59;;;;;;;29.63;6.57;;;;;;;;;;5059975;28;20480;-69
2023/03/30 13:47:30;;;;;;;35.90;8.10;;;;;;;;;;5054056;28;20481;-68
2023/03/30 13:49:59;;;;;;;32.65;6.50;;;;;;;;;;5056445;28;20053;-69
2023/03/30 13:52:30;;;;;;;32.97;6.93;;;;;;;;;;5057927;28;20075;-69
2023/03/30 13:54:57;;;;;;;31.63;5.97;;;;;;;;;;5053287;28;20044;-69
2023/03/30 13:57:29;;;;;;;35.38;7.15;;;;;;;;;;5039253;28;20040;-69
2023/03/30 13:59:59;;;;;;;33.60;5.95;;;;;;;;;;5038292;28;20500;-70
2023/03/30 14:02:29;;;;;;;36.83;8.32;;;;;;;;;;5057232;28;20044;-69
2023/03/30 14:05:09;;;;;;;34.65;7.88;;;;;;;;;;5057207;28;20059;-69
2023/03/30 14:07:40;;;;;;;30.20;7.65;;;;;;;;;;5039515;28;20048;-69
2023/03/30 14:10:08;;;;;;;38.28;7.63;;;;;;;;;;5041877;28;20048;-69
2023/03/30 14:12:34;;;;;;;35.50;6.88;;;;;;;;;;5060023;28;20048;-69
2023/03/30 14:15:01;;;;;;;35.38;7.28;;;;;;;;;;5042981;28;20514;-70
2023/03/30 14:17:27;;;;;;;33.55;6.85;;;;;;;;;;5039828;28;20045;-69
2023/03/30 14:19:55;;;;;;;29.42;6.28;;;;;;;;;;5040795;28;20143;-70
2023/03/30 14:22:24;;;;;;;30.98;6.93;;;;;;;;;;5040689;28;20060;-70
2023/03/30 14:24:57;;;;;;;33.75;7.40;;;;;;;;;;5056643;28;20396;-68
2023/03/30 14:27:24;;;;;;;29.52;6.15;;;;;;;;;;5057722;28;20080;-68
2023/03/30 14:29:51;;;;;;;36.85;7.55;;;;;;;;;;5058948;28;20094;-69
2023/03/30 14:32:19;;;;;;;33.45;7.35;;;;;;;;;;5058490;28;20089;-67
2023/03/30 14:34:47;;;;;;;37.05;8.35;;;;;;;;;;5058098;28;20052;-67
2023/03/30 14:37:14;;;;;;;34.42;7.15;;;;;;;;;;5057510;28;20055;-66
2023/03/30 14:39:43;;;;;;;42.58;8.00;;;;;;;;;;5041424;28;20040;-67
2023/03/30 14:42:14;;;;;;;33.53;7.22;;;;;;;;;;5057484;28;20052;-67
2023/03/30 14:44:40;;;;;;;36.45;7.60;;;;;;;;;;5059061;28;20055;-67